Time;durP1;ratioP1;P1;durP2;ratioP2;P2;SDS_P1;SDS_P2;PMS_P1;PMS_P2;Temp;Humidity;BMP_temperature;BMP_pressure;BME280_temperature;BME280_humidity;BME280_pressure;Samples;Min_cycle;Max_cycle;Signal;HPM_P1;HPM_P2
2024/04/08 00:01:04;;;;;;;19.48;3.28;;;9.50;99.90;;;;;;6211516;28;20060;-74
2024/04/08 00:04:05;;;;;;;15.98;2.58;;;9.70;99.90;;;;;;6212756;28;20049;-74
2024/04/08 00:07:05;;;;;;;18.27;2.88;;;9.70;99.90;;;;;;6276832;28;20752;-73
2024/04/08 00:10:06;;;;;;;21.10;3.30;;;9.70;99.90;;;;;;6263270;28;20064;-73
2024/04/08 00:13:07;;;;;;;16.83;2.70;;;9.80;99.90;;;;;;6229737;28;20056;-73
2024/04/08 00:16:08;;;;;;;14.45;2.70;;;9.90;99.90;;;;;;6266628;28;20057;-74
2024/04/08 00:19:08;;;;;;;19.30;2.75;;;10.00;99.90;;;;;;6244820;28;20162;-74
2024/04/08 00:22:09;;;;;;;18.42;3.15;;;10.00;99.90;;;;;;6277241;28;20053;-73
2024/04/08 00:25:10;;;;;;;17.17;2.60;;;10.00;99.90;;;;;;6253319;28;20053;-73
2024/04/08 00:28:10;;;;;;;15.70;2.63;;;9.90;99.90;;;;;;6252389;28;20052;-73
2024/04/08 00:31:11;;;;;;;20.38;3.17;;;10.00;99.90;;;;;;6236772;28;20547;-74
2024/04/08 00:34:12;;;;;;;19.13;3.42;;;10.00;99.90;;;;;;6211660;28;20049;-74
2024/04/08 00:37:12;;;;;;;17.15;2.92;;;9.90;99.90;;;;;;6251674;28;20178;-74
2024/04/08 00:40:13;;;;;;;21.88;3.40;;;9.80;99.90;;;;;;6252399;28;20140;-74
2024/04/08 00:43:14;;;;;;;16.25;2.97;;;9.90;99.90;;;;;;6244066;28;20735;-74
2024/04/08 00:46:15;;;;;;;23.25;3.15;;;10.00;99.90;;;;;;6238673;28;20056;-73
2024/04/08 00:49:15;;;;;;;15.35;2.75;;;10.00;99.90;;;;;;6243749;28;20507;-73
2024/04/08 00:52:16;;;;;;;24.15;3.58;;;10.00;99.90;;;;;;6253077;28;20056;-73
2024/04/08 00:55:17;;;;;;;16.40;2.67;;;10.00;99.90;;;;;;6252294;28;20053;-73
2024/04/08 00:58:18;;;;;;;12.95;2.63;;;10.10;99.90;;;;;;6228791;28;20053;-74
2024/04/08 01:01:18;;;;;;;19.73;3.50;;;10.10;99.90;;;;;;6235739;28;20140;-74
2024/04/08 01:04:19;;;;;;;21.13;3.60;;;10.00;99.90;;;;;;6210862;28;20421;-74
2024/04/08 01:07:20;;;;;;;18.58;3.00;;;10.00;99.90;;;;;;6251333;28;20690;-74
2024/04/08 01:10:20;;;;;;;20.00;3.45;;;9.90;99.90;;;;;;6266850;28;20459;-74
2024/04/08 01:13:21;;;;;;;21.63;3.42;;;10.00;99.90;;;;;;6252125;28;20491;-74
2024/04/08 01:16:21;;;;;;;21.95;3.50;;;10.00;99.90;;;;;;6246788;28;20049;-74
2024/04/08 01:19:23;;;;;;;14.07;3.00;;;10.10;99.90;;;;;;6251271;28;20064;-74
2024/04/08 01:22:24;;;;;;;17.13;2.90;;;10.00;99.90;;;;;;6251380;28;20049;-75
2024/04/08 01:25:24;;;;;;;16.67;2.70;;;10.00;99.90;;;;;;6251240;28;20061;-75
2024/04/08 01:28:25;;;;;;;18.45;2.60;;;9.90;99.90;;;;;;6251267;28;20543;-75
2024/04/08 01:31:27;;;;;;;18.63;2.70;;;9.90;99.90;;;;;;6264773;28;20060;-74
2024/04/08 01:34:27;;;;;;;19.48;3.17;;;9.80;99.90;;;;;;6210625;28;20063;-74
2024/04/08 01:37:28;;;;;;;17.65;2.70;;;9.80;99.90;;;;;;6250165;28;20463;-73
2024/04/08 01:40:29;;;;;;;16.38;2.85;;;9.70;99.90;;;;;;6251051;28;20099;-74
2024/04/08 01:43:34;;;;;;;19.17;2.95;;;9.80;99.90;;;;;;6256352;28;20568;-72
2024/04/08 01:46:35;;;;;;;22.65;3.28;;;9.80;99.90;;;;;;6250623;28;20053;-73
2024/04/08 01:49:35;;;;;;;14.85;2.70;;;9.70;99.90;;;;;;6259601;28;20052;-73
2024/04/08 02:07:34;;;;;;;20.58;3.45;;;9.80;99.90;;;;;;6286623;28;20037;-74
2024/04/08 02:10:34;;;;;;;19.77;2.80;;;9.80;99.90;;;;;;6226399;28;20104;-75
2024/04/08 02:13:35;;;;;;;24.38;3.78;;;9.80;99.90;;;;;;6238718;28;20060;-74
2024/04/08 02:16:36;;;;;;;22.67;2.45;;;9.70;99.90;;;;;;6250107;28;20067;-74
2024/04/08 02:19:37;;;;;;;16.42;3.25;;;9.80;99.90;;;;;;6250332;28;20106;-74
2024/04/08 02:22:37;;;;;;;17.42;2.80;;;9.90;99.90;;;;;;6259322;28;20053;-74
2024/04/08 02:25:38;;;;;;;18.00;2.88;;;10.00;99.90;;;;;;6254704;28;20048;-73
2024/04/08 02:28:39;;;;;;;15.80;3.25;;;9.90;99.90;;;;;;6269072;28;20052;-73
2024/04/08 02:31:39;;;;;;;25.10;3.70;;;9.90;99.90;;;;;;6250108;28;20118;-73
2024/04/08 02:34:40;;;;;;;12.07;2.13;;;9.80;99.90;;;;;;6250022;28;20053;-73
2024/04/08 02:37:40;;;;;;;15.48;2.38;;;9.80;99.90;;;;;;6225175;28;20057;-73
2024/04/08 02:40:41;;;;;;;20.17;2.85;;;9.80;99.90;;;;;;6250160;28;20053;-73
2024/04/08 02:43:42;;;;;;;17.42;2.47;;;9.90;99.90;;;;;;6249317;28;20057;-74
2024/04/08 02:46:42;;;;;;;15.20;2.35;;;9.90;99.90;;;;;;6263674;28;20063;-73
2024/04/08 02:49:43;;;;;;;22.40;3.28;;;9.80;99.90;;;;;;6226007;28;20068;-73
2024/04/08 02:52:43;;;;;;;13.82;2.65;;;9.80;99.90;;;;;;6268545;28;20044;-74
2024/04/08 02:55:44;;;;;;;22.55;3.45;;;9.80;99.90;;;;;;6250413;28;20075;-74
2024/04/08 02:58:45;;;;;;;17.45;2.63;;;9.80;99.90;;;;;;6227534;28;20347;-74
2024/04/08 03:01:45;;;;;;;15.90;2.88;;;9.80;99.90;;;;;;6233688;28;20081;-75
2024/04/08 03:04:46;;;;;;;17.80;2.30;;;9.80;99.90;;;;;;6225440;28;20055;-75
2024/04/08 03:07:46;;;;;;;10.90;1.95;;;9.90;99.90;;;;;;6248888;28;20053;-74
2024/04/08 03:22:08;;;;;;;18.80;3.05;;;9.70;99.90;;;;;;6243054;28;20060;-74
2024/04/08 03:25:08;;;;;;;19.98;2.72;;;9.80;99.90;;;;;;6249508;28;20172;-74
2024/04/08 03:28:09;;;;;;;18.45;2.92;;;11.20;99.90;;;;;;6266079;28;20072;-75
2024/04/08 03:31:10;;;;;;;14.15;2.75;;;9.80;99.90;;;;;;6233755;28;20061;-74
2024/04/08 03:34:11;;;;;;;19.05;3.17;;;9.80;99.90;;;;;;6227059;28;20111;-74
2024/04/08 03:37:11;;;;;;;11.23;2.40;;;9.90;99.90;;;;;;6236771;28;20060;-74
2024/04/08 03:40:12;;;;;;;22.55;3.50;;;9.90;99.90;;;;;;6276821;28;20181;-74
2024/04/08 03:43:13;;;;;;;18.77;2.78;;;10.10;99.90;;;;;;6265238;28;20053;-74
2024/04/08 03:46:13;;;;;;;21.65;2.70;;;9.70;99.90;;;;;;6247642;28;20091;-75
2024/04/08 03:49:14;;;;;;;21.75;2.85;;;10.70;99.90;;;;;;6242895;28;20649;-73
2024/04/08 03:52:14;;;;;;;18.98;3.22;;;10.10;99.90;;;;;;6253950;28;20554;-73
2024/04/08 03:55:15;;;;;;;17.17;3.15;;;9.70;99.90;;;;;;6253190;28;20056;-73
2024/04/08 03:58:16;;;;;;;18.55;3.08;;;9.60;99.90;;;;;;6239101;28;20085;-75
2024/04/08 04:01:17;;;;;;;18.13;3.30;;;9.90;99.90;;;;;;6262187;28;20133;-73
2024/04/08 04:04:17;;;;;;;17.67;2.95;;;9.90;99.90;;;;;;6228876;28;20086;-74
2024/04/08 04:07:18;;;;;;;12.82;2.20;;;9.90;99.90;;;;;;6226328;28;20061;-73
2024/04/08 04:10:18;;;;;;;20.00;3.33;;;9.90;99.90;;;;;;6253053;28;20053;-73
2024/04/08 04:13:19;;;;;;;21.20;2.72;;;9.90;99.90;;;;;;6264695;28;20052;-73
2024/04/08 04:16:23;;;;;;;19.55;3.20;;;9.90;99.90;;;;;;6246488;28;20057;-74
2024/04/08 04:19:23;;;;;;;13.23;2.50;;;9.90;99.90;;;;;;6256342;28;20465;-74
2024/04/08 04:22:24;;;;;;;18.38;2.38;;;9.90;99.90;;;;;;6253200;28;20057;-74
2024/04/08 04:25:24;;;;;;;19.35;3.05;;;9.90;99.90;;;;;;6253013;28;20130;-74
2024/04/08 04:31:51;;;;;;;17.40;3.13;;;9.90;99.90;;;;;;6277267;28;20052;-73
2024/04/08 04:34:52;;;;;;;17.30;3.38;;;9.90;99.90;;;;;;6229073;28;20057;-74
2024/04/08 04:37:52;;;;;;;15.93;2.83;;;10.00;99.90;;;;;;6272897;28;20055;-74
2024/04/08 04:40:53;;;;;;;26.02;3.05;;;10.00;99.90;;;;;;6275340;28;20049;-74
2024/04/08 04:43:54;;;;;;;19.85;3.30;;;10.00;99.90;;;;;;6216591;28;20056;-74
2024/04/08 04:46:54;;;;;;;15.40;2.72;;;10.00;99.90;;;;;;6228590;28;20057;-74
2024/04/08 04:49:55;;;;;;;19.95;2.88;;;9.90;99.90;;;;;;6237358;28;20377;-74
2024/04/08 04:52:56;;;;;;;17.70;2.70;;;9.90;99.90;;;;;;6276217;28;20423;-75
2024/04/08 04:55:56;;;;;;;14.73;2.45;;;9.90;99.90;;;;;;6253537;28;20053;-76
2024/04/08 04:58:57;;;;;;;23.88;3.38;;;10.10;99.90;;;;;;6244551;28;20257;-74
2024/04/08 05:01:58;;;;;;;16.05;2.35;;;9.80;99.90;;;;;;6228327;28;20138;-74
2024/04/08 05:04:58;;;;;;;18.70;3.03;;;9.70;99.90;;;;;;6252369;28;20059;-74
2024/04/08 05:07:59;;;;;;;18.65;3.40;;;9.70;99.90;;;;;;6276527;28;20052;-74
2024/04/08 05:11:00;;;;;;;15.32;2.42;;;9.50;99.90;;;;;;6253346;28;20420;-74
2024/04/08 05:14:00;;;;;;;16.23;2.60;;;9.40;99.90;;;;;;6261779;28;20053;-74
2024/04/08 05:17:01;;;;;;;13.15;2.25;;;9.30;99.90;;;;;;6243473;23;20096;-74
2024/04/08 05:20:05;;;;;;;13.02;2.50;;;9.30;99.90;;;;;;6194641;28;20077;-74
2024/04/08 05:23:11;;;;;;;17.30;2.45;;;9.20;99.90;;;;;;6194478;28;20062;-74
2024/04/08 05:26:12;;;;;;;12.75;2.10;;;9.00;99.90;;;;;;6194192;28;20120;-74
2024/04/08 05:29:13;;;;;;;12.43;2.28;;;8.80;99.90;;;;;;6188697;28;20046;-74
2024/04/08 05:32:14;;;;;;;13.48;2.55;;;8.70;99.90;;;;;;6194467;28;20058;-73
2024/04/08 05:35:14;;;;;;;12.93;2.25;;;8.60;99.90;;;;;;6194435;28;20054;-74
2024/04/08 05:38:15;;;;;;;13.43;2.47;;;8.60;99.90;;;;;;6193734;28;20411;-74
2024/04/08 05:41:16;;;;;;;11.90;2.22;;;9.30;99.90;;;;;;6178144;28;20062;-74
2024/04/08 05:44:16;;;;;;;13.77;2.50;;;8.40;99.90;;;;;;6193854;28;20070;-74
2024/04/08 05:47:17;;;;;;;15.70;2.83;;;8.50;99.90;;;;;;6177601;28;20502;-74
2024/04/08 05:50:18;;;;;;;18.38;2.70;;;8.80;99.90;;;;;;6194120;28;20058;-75
2024/04/08 05:53:18;;;;;;;15.73;2.65;;;8.70;99.90;;;;;;6193306;28;20435;-74
2024/04/08 05:56:20;;;;;;;14.05;2.63;;;8.80;99.90;;;;;;6193228;28;20085;-74
2024/04/08 05:59:20;;;;;;;16.60;2.38;;;9.00;99.90;;;;;;6178508;28;20062;-75
2024/04/08 06:02:21;;;;;;;16.42;2.85;;;9.20;99.90;;;;;;6177777;28;20070;-75
2024/04/08 06:05:22;;;;;;;9.75;1.85;;;9.40;99.90;;;;;;6177340;28;20065;-75
2024/04/08 06:08:23;;;;;;;12.38;2.15;;;9.50;99.90;;;;;;6193345;28;20058;-75
2024/04/08 06:11:23;;;;;;;18.90;2.75;;;9.60;99.90;;;;;;6193812;28;20091;-75
2024/04/08 06:14:24;;;;;;;9.68;1.73;;;9.70;99.90;;;;;;6187139;28;20532;-76
2024/04/08 06:17:25;;;;;;;10.98;2.22;;;9.70;99.90;;;;;;6160660;28;20134;-76
2024/04/08 06:20:25;;;;;;;11.57;2.08;;;9.80;99.90;;;;;;6176452;28;20454;-74
2024/04/08 06:23:26;;;;;;;11.18;2.60;;;10.00;99.90;;;;;;6193364;28;20088;-76
2024/04/08 06:26:27;;;;;;;13.13;2.10;;;10.10;99.90;;;;;;6193215;28;20065;-74
2024/04/08 06:29:27;;;;;;;17.35;2.38;;;10.20;99.90;;;;;;6177692;28;20058;-75
2024/04/08 06:32:28;;;;;;;14.93;2.78;;;10.30;99.90;;;;;;6193563;28;20137;-74
2024/04/08 06:35:28;;;;;;;16.35;3.00;;;10.40;99.90;;;;;;6193020;28;20058;-76
2024/04/08 06:38:29;;;;;;;22.55;3.80;;;10.50;99.90;;;;;;6192857;28;20140;-75
2024/04/08 06:41:30;;;;;;;18.60;3.22;;;10.60;99.90;;;;;;6192790;28;20058;-75
2024/04/08 06:44:31;;;;;;;15.75;2.72;;;10.80;99.90;;;;;;6168486;28;20068;-74
2024/04/08 06:47:32;;;;;;;18.83;3.10;;;10.80;99.90;;;;;;6180865;28;20520;-74
2024/04/08 06:50:32;;;;;;;20.83;3.00;;;10.90;99.90;;;;;;6177537;28;20069;-75
2024/04/08 06:53:33;;;;;;;18.15;2.63;;;10.90;99.90;;;;;;6192474;28;20055;-74
2024/04/08 06:56:34;;;;;;;14.40;2.60;;;11.00;99.90;;;;;;6192780;28;20062;-75
2024/04/08 06:59:34;;;;;;;17.73;3.63;;;10.90;99.90;;;;;;6170798;28;20053;-75
2024/04/08 07:02:35;;;;;;;20.15;3.22;;;11.00;99.90;;;;;;6176902;28;20062;-75
2024/04/08 07:05:35;;;;;;;16.33;2.55;;;11.10;99.90;;;;;;6176267;28;20343;-75
2024/04/08 07:08:36;;;;;;;15.50;2.53;;;11.10;99.90;;;;;;6193895;28;20488;-74
2024/04/08 07:11:37;;;;;;;10.50;2.38;;;11.30;99.90;;;;;;6197336;28;20417;-76
2024/04/08 07:14:37;;;;;;;18.02;3.20;;;11.50;99.90;;;;;;6185277;28;20205;-74
2024/04/08 07:17:38;;;;;;;16.40;2.83;;;11.60;99.90;;;;;;6194841;28;20057;-74
2024/04/08 07:20:39;;;;;;;16.55;3.38;;;11.70;99.90;;;;;;6181347;28;20117;-74
2024/04/08 07:23:39;;;;;;;15.93;3.03;;;11.80;99.90;;;;;;6178965;28;20050;-74
2024/04/08 07:26:40;;;;;;;24.25;3.78;;;11.90;99.90;;;;;;6197348;28;20089;-76
2024/04/08 07:29:41;;;;;;;18.33;2.80;;;11.90;99.90;;;;;;6189598;28;20064;-75
2024/04/08 07:32:41;;;;;;;15.60;2.88;;;11.90;99.90;;;;;;6194238;28;20050;-75
2024/04/08 07:35:42;;;;;;;17.15;2.80;;;11.90;99.90;;;;;;6196151;28;20058;-74
2024/04/08 07:38:42;;;;;;;12.18;2.67;;;12.00;99.90;;;;;;6196673;28;20054;-75
2024/04/08 07:41:43;;;;;;;16.17;2.72;;;12.20;99.90;;;;;;6188836;28;20054;-74
2024/04/08 07:44:44;;;;;;;17.83;3.05;;;12.30;99.90;;;;;;6180107;28;20058;-75
2024/04/08 07:47:45;;;;;;;19.23;3.55;;;12.60;99.90;;;;;;6180406;28;20410;-76
2024/04/08 07:50:46;;;;;;;13.23;2.58;;;12.60;98.30;;;;;;6196059;28;20066;-74
2024/04/08 07:53:46;;;;;;;16.13;3.38;;;13.30;98.10;;;;;;6180128;28;20062;-74
2024/04/08 07:56:47;;;;;;;14.20;2.70;;;13.40;94.40;;;;;;6195819;28;20134;-73
2024/04/08 07:59:48;;;;;;;15.43;2.75;;;13.90;93.50;;;;;;6181701;28;20058;-75
2024/04/08 08:02:48;;;;;;;16.98;3.33;;;14.30;86.00;;;;;;6195656;28;20062;-76
2024/04/08 08:05:49;;;;;;;10.35;2.50;;;14.30;79.10;;;;;;6179618;28;20054;-75
2024/04/08 08:08:50;;;;;;;12.00;2.85;;;13.60;82.00;;;;;;6195878;28;20046;-75
2024/04/08 08:15:28;;;;;;;17.25;2.88;;;14.90;62.10;;;;;;6153988;28;20043;-78
2024/04/08 08:18:31;;;;;;;16.98;3.10;;;14.90;55.70;;;;;;6194959;28;20065;-80
2024/04/08 08:21:32;;;;;;;15.10;3.10;;;15.30;43.70;;;;;;6195167;28;20062;-78
2024/04/08 08:24:32;;;;;;;10.88;2.30;;;15.20;41.00;;;;;;6162239;28;20076;-76
2024/04/08 08:27:33;;;;;;;13.10;2.85;;;15.40;39.80;;;;;;6195345;28;20062;-79
2024/04/08 08:30:33;;;;;;;14.57;2.78;;;15.20;25.00;;;;;;6184358;28;20069;-80
2024/04/08 08:33:34;;;;;;;11.38;2.38;;;15.10;16.50;;;;;;6195337;28;20057;-81
2024/04/08 08:36:35;;;;;;;20.17;2.95;;;15.00;26.80;;;;;;6195375;28;20054;-81
2024/04/08 08:39:37;;;;;;;12.23;2.55;;;15.40;19.70;;;;;;6194950;28;20080;-82
2024/04/08 08:42:38;;;;;;;11.95;2.55;;;15.30;15.90;;;;;;6194842;28;20050;-77
2024/04/08 08:45:41;;;;;;;11.25;2.40;;;15.50;41.70;;;;;;6189396;28;20062;-79
2024/04/08 08:48:42;;;;;;;16.25;2.80;;;15.90;12.80;;;;;;6179058;28;20046;-82
2024/04/08 08:51:42;;;;;;;13.30;2.47;;;16.10;7.70;;;;;;6185619;28;20065;-77
2024/04/08 08:54:43;;;;;;;14.90;2.45;;;16.00;1.00;;;;;;6195211;28;20062;-75
2024/04/08 08:57:44;;;;;;;13.23;2.40;;;16.20;1.00;;;;;;6178911;28;20065;-77
2024/04/08 09:00:44;;;;;;;11.30;2.17;;;16.40;1.00;;;;;;6189514;28;20058;-74
2024/04/08 09:03:45;;;;;;;12.65;2.00;;;16.70;1.00;;;;;;6194702;28;20117;-76
2024/04/08 09:06:45;;;;;;;11.43;1.90;;;17.00;1.00;;;;;;6194945;28;20066;-76
2024/04/08 09:09:46;;;;;;;15.10;2.22;;;17.10;1.00;;;;;;6195504;28;20449;-77
2024/04/08 09:12:47;;;;;;;12.43;2.55;;;17.40;1.00;;;;;;6178898;28;20509;-77
2024/04/08 09:15:47;;;;;;;12.82;2.75;;;17.60;1.00;;;;;;6172294;28;20136;-78
2024/04/08 09:18:48;;;;;;;8.48;2.10;;;17.60;1.00;;;;;;6203221;28;20629;-77
2024/04/08 09:21:49;;;;;;;13.77;2.45;;;17.60;1.00;;;;;;6197594;28;20062;-76
2024/04/08 09:24:49;;;;;;;10.65;2.33;;;17.10;1.00;;;;;;6184778;28;20513;-74
2024/04/08 09:27:50;;;;;;;13.45;2.20;;;17.10;1.00;;;;;;6205939;28;20057;-77
2024/04/08 09:30:51;;;;;;;12.98;2.90;;;16.90;1.00;;;;;;6195263;28;20049;-76
2024/04/08 09:33:52;;;;;;;12.75;2.40;;;16.70;1.00;;;;;;6185718;28;20060;-77
2024/04/08 09:36:52;;;;;;;10.25;2.40;;;17.10;1.00;;;;;;6201825;28;20058;-77
2024/04/08 09:39:53;;;;;;;9.82;2.13;;;17.40;1.00;;;;;;6201444;28;20152;-76
2024/04/08 09:42:54;;;;;;;10.80;2.10;;;17.60;1.00;;;;;;6196670;28;20058;-77
2024/04/08 09:45:56;;;;;;;13.23;2.78;;;18.30;1.00;;;;;;6195251;28;20140;-77
2024/04/08 09:48:57;;;;;;;9.23;2.15;;;18.40;1.00;;;;;;6201389;28;20068;-74
2024/04/08 09:51:57;;;;;;;10.88;2.33;;;18.40;1.00;;;;;;6202065;28;20061;-75
2024/04/08 09:54:58;;;;;;;6.85;1.60;;;18.30;1.00;;;;;;6202319;28;20073;-76
2024/04/08 09:58:00;;;;;;;7.35;1.73;;;18.20;1.00;;;;;;6203105;28;20497;-84
2024/04/08 10:01:03;;;;;;;12.98;2.05;;;18.30;1.00;;;;;;6172580;28;20062;-82
2024/04/08 10:04:03;;;;;;;8.40;2.15;;;18.60;1.00;;;;;;6177468;28;20117;-75
2024/04/08 10:07:05;;;;;;;12.32;2.20;;;18.80;1.00;;;;;;6163438;28;20058;-74
2024/04/08 10:10:09;;;;;;;9.98;1.90;;;18.90;1.00;;;;;;6201030;28;20073;-73
2024/04/08 10:13:10;;;;;;;8.07;2.10;;;19.30;1.00;;;;;;6178957;28;20452;-76
2024/04/08 10:16:11;;;;;;;8.90;1.73;;;19.90;1.00;;;;;;6195319;28;20049;-76
2024/04/08 10:19:12;;;;;;;7.40;1.42;;;20.10;1.00;;;;;;6201273;28;20057;-77
2024/04/08 10:22:15;;;;;;;9.27;1.73;;;20.10;1.00;;;;;;6201677;28;20089;-77
2024/04/08 10:25:16;;;;;;;7.35;1.48;;;20.40;1.00;;;;;;6199427;28;20132;-76
2024/04/08 10:28:17;;;;;;;9.07;2.22;;;20.50;1.00;;;;;;6178568;28;20063;-74
2024/04/08 10:31:18;;;;;;;10.45;1.50;;;21.40;1.00;;;;;;6200814;28;20525;-75
2024/04/08 10:34:19;;;;;;;10.30;1.60;;;23.20;1.00;;;;;;6201290;28;20065;-74
2024/04/08 10:37:19;;;;;;;9.20;1.85;;;24.20;1.00;;;;;;6160455;28;20050;-72
2024/04/08 10:40:20;;;;;;;8.68;1.80;;;23.70;1.00;;;;;;6176373;28;20050;-72
2024/04/08 10:43:26;;;;;;;6.15;1.58;;;23.10;1.00;;;;;;6177493;28;20429;-73
2024/04/08 10:46:28;;;;;;;5.78;1.65;;;23.20;1.00;;;;;;6189298;28;20058;-75
2024/04/08 10:49:29;;;;;;;9.45;1.65;;;23.10;1.00;;;;;;6181743;28;20077;-78
2024/04/08 10:52:29;;;;;;;5.63;1.42;;;23.60;1.00;;;;;;6188740;28;20053;-74
2024/04/08 10:55:30;;;;;;;6.60;1.58;;;21.20;1.00;;;;;;6205453;28;20053;-76
2024/04/08 10:58:31;;;;;;;8.00;1.75;;;20.10;1.00;;;;;;6188369;28;20053;-75
2024/04/08 11:01:32;;;;;;;9.50;2.45;;;20.10;1.00;;;;;;6189334;28;20057;-74
2024/04/08 11:04:32;;;;;;;5.15;1.20;;;19.30;1.00;;;;;;6189378;28;20421;-74
2024/04/08 11:07:36;;;;;;;6.93;1.33;;;18.80;1.00;;;;;;6180934;28;20058;-75
2024/04/08 11:10:37;;;;;;;7.10;1.58;;;19.10;1.00;;;;;;6205242;28;20050;-76
2024/04/08 11:13:38;;;;;;;6.53;1.50;;;20.10;1.00;;;;;;6194790;28;20585;-74
2024/04/08 11:16:38;;;;;;;8.65;1.80;;;20.80;1.00;;;;;;6188974;28;20289;-75
2024/04/08 11:19:39;;;;;;;9.30;1.50;;;21.40;1.00;;;;;;6205326;28;20199;-74
2024/04/08 11:22:40;;;;;;;5.75;1.20;;;21.70;1.00;;;;;;6205105;28;20093;-75
2024/04/08 11:25:40;;;;;;;6.30;1.58;;;21.20;1.00;;;;;;6204850;28;20085;-74
2024/04/08 11:28:41;;;;;;;9.77;1.98;;;22.00;1.00;;;;;;6204575;28;20050;-74
2024/04/08 11:31:42;;;;;;;6.78;1.40;;;22.20;1.00;;;;;;6204809;28;20069;-74
2024/04/08 11:34:42;;;;;;;19.88;1.90;;;21.60;1.00;;;;;;6204995;28;20083;-75
2024/04/08 11:37:43;;;;;;;7.70;1.50;;;21.60;1.00;;;;;;6205127;28;20053;-74
2024/04/08 11:40:45;;;;;;;5.05;1.10;;;22.30;1.00;;;;;;6204418;28;20497;-74
2024/04/08 11:43:49;;;;;;;6.20;1.35;;;22.40;1.00;;;;;;6204184;28;20057;-75
2024/04/08 11:46:49;;;;;;;6.88;1.48;;;21.70;1.00;;;;;;6205081;28;20058;-74
2024/04/08 11:49:50;;;;;;;8.93;1.40;;;21.80;1.00;;;;;;6204334;28;20084;-73
2024/04/08 11:52:52;;;;;;;9.88;1.63;;;22.00;1.00;;;;;;6204348;28;20165;-75
2024/04/08 11:55:53;;;;;;;5.53;1.20;;;22.50;1.00;;;;;;6187855;28;20050;-75
2024/04/08 11:58:54;;;;;;;8.68;1.20;;;22.90;1.00;;;;;;6167211;28;20046;-75
2024/04/08 12:01:55;;;;;;;5.53;1.17;;;23.30;1.00;;;;;;6204986;28;20054;-75
2024/04/08 12:04:58;;;;;;;6.22;1.30;;;24.70;1.00;;;;;;6189881;28;20068;-75
2024/04/08 12:08:00;;;;;;;5.43;1.38;;;24.80;1.00;;;;;;6188065;28;20062;-74
2024/04/08 12:11:01;;;;;;;4.82;1.10;;;23.90;1.00;;;;;;6204066;28;20057;-74
2024/04/08 12:14:02;;;;;;;5.70;1.23;;;22.50;1.00;;;;;;6193846;28;20068;-73
2024/04/08 12:17:03;;;;;;;6.22;1.58;;;23.10;1.00;;;;;;6187659;28;20061;-75
2024/04/08 12:20:04;;;;;;;6.82;1.25;;;22.40;1.00;;;;;;6187953;28;20457;-75
2024/04/08 12:23:11;;;;;;;9.95;1.75;;;22.30;1.00;;;;;;6203815;28;20395;-75
2024/04/08 12:26:13;;;;;;;6.15;1.75;;;21.40;1.00;;;;;;6202092;28;20068;-76
2024/04/08 12:29:14;;;;;;;8.88;1.55;;;21.50;1.00;;;;;;6198201;28;20448;-75
2024/04/08 12:32:15;;;;;;;8.10;1.60;;;21.30;1.00;;;;;;6187779;28;20053;-75
2024/04/08 12:35:15;;;;;;;6.13;1.50;;;21.20;1.00;;;;;;6203832;28;20053;-75
2024/04/08 12:38:17;;;;;;;6.35;1.50;;;21.40;1.00;;;;;;6203160;28;20528;-74
2024/04/08 12:41:18;;;;;;;8.07;1.60;;;21.20;1.00;;;;;;6203602;28;20127;-74
2024/04/08 12:44:19;;;;;;;7.13;1.60;;;21.20;1.00;;;;;;6196594;28;20136;-75
2024/04/08 12:47:19;;;;;;;8.27;1.65;;;22.30;1.00;;;;;;6203178;28;20398;-76
2024/04/08 12:50:20;;;;;;;5.35;1.40;;;22.80;1.00;;;;;;6203587;28;20643;-75
2024/04/08 12:53:21;;;;;;;6.30;1.30;;;23.10;1.00;;;;;;6202767;28;20061;-73
2024/04/08 12:56:22;;;;;;;8.23;1.50;;;23.80;1.00;;;;;;6186887;28;20083;-73
2024/04/08 12:59:22;;;;;;;5.90;1.30;;;25.00;1.00;;;;;;6191961;28;20119;-74
2024/04/08 13:02:25;;;;;;;10.77;1.85;;;24.90;1.00;;;;;;6203225;28;20057;-74
2024/04/08 13:05:26;;;;;;;5.38;1.00;;;24.10;1.00;;;;;;6185894;28;20428;-77
2024/04/08 13:08:27;;;;;;;4.65;1.27;;;22.40;1.00;;;;;;6202024;28;20057;-77
2024/04/08 13:11:27;;;;;;;4.85;1.08;;;21.80;1.00;;;;;;6203583;28;20046;-82
2024/04/08 13:14:28;;;;;;;6.22;1.10;;;21.00;1.00;;;;;;6182998;28;20452;-81
2024/04/08 13:17:29;;;;;;;5.07;1.65;;;20.30;1.00;;;;;;6186294;28;20429;-74
2024/04/08 13:20:29;;;;;;;7.88;1.73;;;20.30;1.00;;;;;;6202590;28;20456;-79
2024/04/08 13:23:30;;;;;;;7.75;1.70;;;19.90;1.00;;;;;;6200839;28;20101;-81
2024/04/08 13:26:31;;;;;;;6.47;1.50;;;19.40;1.00;;;;;;6202391;28;20062;-76
2024/04/08 13:29:32;;;;;;;8.02;1.70;;;19.00;1.00;;;;;;6184247;28;20061;-83
2024/04/08 13:32:33;;;;;;;7.78;1.70;;;18.80;1.00;;;;;;6186052;28;20097;-80
2024/04/08 13:35:33;;;;;;;5.97;1.63;;;18.80;1.00;;;;;;6202564;28;20448;-75
2024/04/08 13:38:34;;;;;;;5.43;1.42;;;18.50;1.00;;;;;;6180687;28;20049;-81
2024/04/08 13:41:35;;;;;;;10.65;2.03;;;18.40;1.00;;;;;;6185942;28;20057;-78
2024/04/08 13:44:35;;;;;;;6.80;2.05;;;18.40;1.00;;;;;;6197061;28;20061;-85
2024/04/08 13:47:36;;;;;;;5.35;1.63;;;18.40;1.00;;;;;;6203983;28;20054;-82
2024/04/08 13:50:37;;;;;;;7.32;1.55;;;18.50;1.00;;;;;;6204016;28;20143;-82
2024/04/08 13:53:37;;;;;;;7.43;1.58;;;18.70;1.00;;;;;;6202546;28;20069;-84
2024/04/08 13:56:38;;;;;;;7.80;1.75;;;18.90;1.00;;;;;;6180069;28;20564;-81
2024/04/08 13:59:38;;;;;;;6.25;1.77;;;18.70;1.00;;;;;;6202737;28;20410;-88
2024/04/08 14:02:39;;;;;;;5.07;1.50;;;18.70;1.00;;;;;;6203875;28;20064;-83
2024/04/08 14:05:40;;;;;;;8.43;1.58;;;19.50;1.00;;;;;;6203740;28;20068;-82
2024/04/08 14:08:40;;;;;;;8.05;1.55;;;19.40;1.00;;;;;;6185322;28;20058;-82
2024/04/08 14:11:41;;;;;;;8.57;1.55;;;19.30;1.00;;;;;;6196909;28;20078;-83
2024/04/08 14:14:42;;;;;;;8.07;1.90;;;20.00;1.00;;;;;;6196047;28;20077;-80
2024/04/08 14:17:42;;;;;;;8.00;1.23;;;19.90;1.00;;;;;;6201078;28;20058;-78
2024/04/08 14:20:43;;;;;;;9.60;1.42;;;20.00;1.00;;;;;;6200987;28;20058;-82
2024/04/08 14:23:43;;;;;;;6.03;1.10;;;20.10;1.00;;;;;;6201948;28;20062;-78
2024/04/08 14:26:44;;;;;;;5.28;1.25;;;20.00;1.00;;;;;;6201408;28;20065;-83
2024/04/08 14:30:57;;;;;;;5.97;1.10;;;20.00;1.00;;;;;;6869768;25;20340;-78
2024/04/08 14:33:59;;;;;;;6.35;1.42;;;20.20;1.00;;;;;;6878328;25;20002;-75
2024/04/08 14:37:01;;;;;;;5.18;1.00;;;20.50;1.00;;;;;;6877765;25;20073;-74
2024/04/08 14:40:04;;;;;;;6.18;1.20;;;20.50;1.00;;;;;;6877881;25;20012;-80
2024/04/08 14:43:06;;;;;;;5.07;1.10;;;20.50;1.00;;;;;;6877744;25;20448;-76
2024/04/08 14:46:22;;;;;;;7.93;1.25;;;20.10;1.00;;;;;;6850309;25;20008;-80
2024/04/08 14:49:24;;;;;;;10.02;1.50;;;19.60;1.00;;;;;;6831715;26;20085;-73
2024/04/08 14:52:26;;;;;;;5.85;1.40;;;19.30;1.00;;;;;;6876650;25;20009;-79
2024/04/08 14:55:40;;;;;;;7.60;1.52;;;19.10;1.00;;;;;;6832311;26;20325;-84
2024/04/08 14:58:42;;;;;;;6.57;1.55;;;19.50;1.00;;;;;;6862125;25;20008;-79
2024/04/08 15:01:47;;;;;;;5.32;1.70;;;19.40;1.00;;;;;;6879479;25;20003;-81
2024/04/08 15:04:49;;;;;;;6.47;1.45;;;19.10;1.00;;;;;;6877674;25;20029;-82
2024/04/08 15:07:51;;;;;;;6.80;1.60;;;18.70;1.00;;;;;;6882512;25;19997;-85
2024/04/08 15:10:54;;;;;;;5.50;1.60;;;18.50;1.00;;;;;;6847779;25;20015;-79
2024/04/08 15:13:56;;;;;;;3.88;1.30;;;18.40;1.00;;;;;;6862437;25;20001;-81
2024/04/08 15:16:58;;;;;;;6.50;1.70;;;18.70;1.00;;;;;;6876189;25;20415;-83
2024/04/08 15:20:00;;;;;;;6.05;1.50;;;18.60;1.00;;;;;;6844556;25;20405;-76
2024/04/08 15:23:02;;;;;;;3.78;1.35;;;18.60;1.00;;;;;;6876710;25;20449;-77
2024/04/08 15:26:04;;;;;;;4.05;1.52;;;18.70;1.00;;;;;;6877119;25;20320;-76
2024/04/08 15:29:06;;;;;;;5.03;1.90;;;18.60;1.00;;;;;;6873318;25;20040;-74
2024/04/08 15:32:07;;;;;;;8.20;1.88;;;18.50;1.00;;;;;;6876687;25;20468;-87
2024/04/08 15:35:09;;;;;;;6.85;1.70;;;18.70;1.00;;;;;;6877227;25;20013;-81
2024/04/08 15:38:14;;;;;;;8.13;2.20;;;18.70;1.00;;;;;;6884596;25;20016;-81
2024/04/08 15:41:16;;;;;;;4.63;1.92;;;18.90;1.00;;;;;;6881860;25;20012;-79
2024/04/08 15:44:21;;;;;;;4.47;1.85;;;18.80;1.00;;;;;;6857642;25;20095;-84
2024/04/08 15:47:22;;;;;;;6.82;1.60;;;19.00;1.00;;;;;;6822908;25;20013;-83
2024/04/08 15:50:24;;;;;;;9.70;1.90;;;19.40;1.00;;;;;;6857569;26;20007;-80
2024/04/08 15:53:26;;;;;;;4.95;1.50;;;20.00;1.00;;;;;;6857792;26;20073;-84
2024/04/08 15:56:28;;;;;;;5.57;2.00;;;19.30;1.00;;;;;;6824351;26;20012;-75
2024/04/08 15:59:30;;;;;;;6.63;2.03;;;19.10;1.00;;;;;;6848614;26;20012;-77
2024/04/08 16:02:34;;;;;;;5.57;1.90;;;18.60;1.00;;;;;;6856809;25;20020;-77
2024/04/08 16:05:36;;;;;;;5.95;2.40;;;18.60;1.00;;;;;;6856704;26;20082;-75
2024/04/08 16:08:38;;;;;;;7.13;2.70;;;18.50;1.00;;;;;;6856275;25;20037;-75
2024/04/08 16:11:39;;;;;;;5.50;2.35;;;18.60;1.00;;;;;;6856140;26;20014;-75
2024/04/08 16:14:41;;;;;;;8.85;2.70;;;18.50;1.00;;;;;;6847280;26;20046;-74
2024/04/08 16:17:43;;;;;;;6.80;2.60;;;18.20;1.00;;;;;;6855605;25;20006;-75